Estación de El Carmen

Ultimos registro cada 15 minutos 73
Estación Fecha / Hora Temperatura Humedad Lluvia Velocidad Dirección Radiación Presion
73 El Carmen 03-05-2026 18:00 16,2 63,4 0 0 108 4,4 975,7
72 El Carmen 03-05-2026 17:45 16,8 60 0 0 128 21,9 975,6
71 El Carmen 03-05-2026 17:30 18,1 56,6 0 0,5 140 78,1 975,6
70 El Carmen 03-05-2026 17:15 18,1 60,3 0 0,5 147 68,1 975,5
69 El Carmen 03-05-2026 17:00 17,8 63 0 0,5 139 89,4 975,5
68 El Carmen 03-05-2026 16:45 17,5 68,8 0 0 125 104,4 975,2
67 El Carmen 03-05-2026 16:30 17,2 67,7 0 0,5 121 109,4 975,2
66 El Carmen 03-05-2026 16:15 17,4 67,6 0 0 119 94,4 975,2
65 El Carmen 03-05-2026 16:00 17,6 65,3 0 0,5 138 101,9 975,4
64 El Carmen 03-05-2026 15:45 18,1 64,6 0 0,5 136 126,9 975,4
63 El Carmen 03-05-2026 15:30 18,2 64,9 0 1 135 169,4 975,3
62 El Carmen 03-05-2026 15:15 18,3 63,1 0 1 139 214,4 975,2
61 El Carmen 03-05-2026 15:00 18,5 61,6 0 1 136 144,4 975,1
60 El Carmen 03-05-2026 14:45 19,5 60,3 0 1 139 218,1 975,2
59 El Carmen 03-05-2026 14:30 19,6 57,2 0 1 152 245,6 975,1
58 El Carmen 03-05-2026 14:15 20,2 56,6 0 0,5 152 273,1 975
57 El Carmen 03-05-2026 14:00 21,7 51,2 0 0 147 245,6 974,9
56 El Carmen 03-05-2026 13:45 20,6 52,7 0 0 135 321,9 975
55 El Carmen 03-05-2026 13:30 20,1 53 0 0 135 281,9 975,1
54 El Carmen 03-05-2026 13:15 19,5 58,4 0 0 135 269,4 975,4
53 El Carmen 03-05-2026 13:00 19,6 59,5 0 0 139 333,1 975,5
52 El Carmen 03-05-2026 12:45 19,2 56,8 0 0 117 320,6 975,4
51 El Carmen 03-05-2026 12:30 18,4 60 0 0 128 291,9 975,5
50 El Carmen 03-05-2026 12:15 18,4 61,6 0 0 129 306,9 975,8
49 El Carmen 03-05-2026 12:00 18,1 63 0 0 131 256,9 976,1
48 El Carmen 03-05-2026 11:45 17,8 62,5 0 0 147 241,9 976,4
47 El Carmen 03-05-2026 11:30 17,5 62,2 0 0 146 263,1 976,2
46 El Carmen 03-05-2026 11:15 18,4 61,7 0 0 125 320,6 976,3
45 El Carmen 03-05-2026 11:00 17,6 65,2 0 0 128 488,1 976,3
44 El Carmen 03-05-2026 10:45 16,5 69,9 0 0 140 425,6 976,5
43 El Carmen 03-05-2026 10:30 16 71,3 0 0 132 394,4 976,4
42 El Carmen 03-05-2026 10:15 15,8 71,3 0 0 124 369,4 976,4
41 El Carmen 03-05-2026 10:00 15,2 71,7 0 0 119 336,9 976,4
40 El Carmen 03-05-2026 09:45 14,3 75,9 0 0 145 319,4 976,3
39 El Carmen 03-05-2026 09:30 13,4 80,2 0 0 145 284,4 976,3
38 El Carmen 03-05-2026 09:15 13,4 80,1 0 0 115 240,6 976,2
37 El Carmen 03-05-2026 09:00 12,1 86,2 0 0 115 195,6 976
36 El Carmen 03-05-2026 08:45 9,8 92 0 0 115 84,4 975,7
35 El Carmen 03-05-2026 08:30 8 95,3 0 0 115 20,6 975,5
34 El Carmen 03-05-2026 08:15 6,1 95,6 0 0 115 19,4 975,3
33 El Carmen 03-05-2026 08:00 3,4 95 0 0 115 14,4 975,3
32 El Carmen 03-05-2026 07:45 3,2 94,1 0 0 115 8,1 975,2
31 El Carmen 03-05-2026 07:30 3,4 94 0 0 115 4,4 974,9
30 El Carmen 03-05-2026 07:15 3,8 93,8 0 0 115 0,6 975
29 El Carmen 03-05-2026 07:00 4,9 93,2 0 0 117 0,6 974,6
28 El Carmen 03-05-2026 06:45 4,2 93,2 0 0 117 0,6 974,4
27 El Carmen 03-05-2026 06:30 5 92,6 0 0 117 0,6 974,4
26 El Carmen 03-05-2026 06:15 5,9 91,7 0 0 117 0,6 974,4
25 El Carmen 03-05-2026 06:00 5,6 93,1 0 0 117 0,6 974,4
24 El Carmen 03-05-2026 05:45 5,8 93,7 0 0 117 0,6 974,8
23 El Carmen 03-05-2026 05:30 6,2 93,5 0 0 117 0,6 974,9
22 El Carmen 03-05-2026 05:15 6,4 92,9 0 0 115 0,6 975,2
21 El Carmen 03-05-2026 05:00 7,3 91,5 0 0 107 0,6 975,4
20 El Carmen 03-05-2026 04:45 7,5 91,7 0 0 97 0,6 975,4
19 El Carmen 03-05-2026 04:30 7,8 90,6 0 0 105 0,6 975,4
18 El Carmen 03-05-2026 04:15 7,3 90,1 0 0 117 0,6 975,2
17 El Carmen 03-05-2026 04:00 7,7 89,9 0 0 111 0,6 975
16 El Carmen 03-05-2026 03:45 7,7 88,3 0 0 105 0,6 974,7
15 El Carmen 03-05-2026 03:30 7,9 89,1 0 0 107 0,6 975
14 El Carmen 03-05-2026 03:15 7,5 90,6 0 0 117 0,6 975
13 El Carmen 03-05-2026 03:00 7,3 91,6 0 0 125 0,6 975,2
12 El Carmen 03-05-2026 02:45 8,3 89,5 0 0 107 0,6 975,4
11 El Carmen 03-05-2026 02:30 8,2 90,6 0 0 122 0,6 975,5
10 El Carmen 03-05-2026 02:15 6,8 93 0 0 111 0,6 975,5
9 El Carmen 03-05-2026 02:00 6,6 91,7 0 0 98 0,6 975,2
8 El Carmen 03-05-2026 01:45 7,5 91,4 0 0 100 0,6 975
7 El Carmen 03-05-2026 01:30 8,2 90,8 0 0 107 0,6 975,2
6 El Carmen 03-05-2026 01:15 6,4 92,7 0 0 114 0,6 974,9
5 El Carmen 03-05-2026 01:00 5,8 93,3 0 0 114 0,6 975
4 El Carmen 03-05-2026 00:45 6,4 93 0 0 114 0,6 974,8
3 El Carmen 03-05-2026 00:30 5,9 93 0 0 114 0,6 974,5
2 El Carmen 03-05-2026 00:15 6,4 92,9 0 0 114 0,6 975
1 El Carmen 03-05-2026 00:00 6,8 92 0 0 114 0,6 975,3